Time;durP1;ratioP1;P1;durP2;ratioP2;P2;SDS_P1;SDS_P2;PMS_P1;PMS_P2;Temp;Humidity;BMP_temperature;BMP_pressure;BME280_temperature;BME280_humidity;BME280_pressure;Samples;Min_cycle;Max_cycle;Signal;HPM_P1;HPM_P2
2023/04/11 00:02:22;;;;;;;9.80;1.90;;;9.30;99.90;;;;;;5094387;28;20168;-49
2023/04/11 00:04:47;;;;;;;9.65;2.22;;;8.10;99.90;;;;;;5092337;28;20034;-47
2023/04/11 00:07:13;;;;;;;12.20;2.35;;;7.90;99.90;;;;;;5057181;28;20903;-47
2023/04/11 00:09:39;;;;;;;11.88;2.17;;;9.70;99.90;;;;;;5093464;28;20039;-50
2023/04/11 00:12:05;;;;;;;13.23;2.58;;;8.10;99.90;;;;;;5094033;28;20044;-51
2023/04/11 00:14:32;;;;;;;15.77;3.08;;;7.90;99.90;;;;;;5092545;28;20161;-48
2023/04/11 00:16:59;;;;;;;15.75;2.00;;;7.70;99.90;;;;;;5093238;28;20324;-50
2023/04/11 00:19:28;;;;;;;18.55;2.97;;;7.80;99.90;;;;;;5092909;28;20048;-47
2023/04/11 00:21:57;;;;;;;13.85;2.95;;;9.50;99.90;;;;;;5095909;27;20988;-47
2023/04/11 00:24:26;;;;;;;14.02;2.78;;;7.80;99.90;;;;;;5096215;27;20054;-47
2023/04/11 00:26:52;;;;;;;19.92;2.45;;;7.70;99.90;;;;;;5097134;27;20043;-48
2023/04/11 00:29:18;;;;;;;16.65;3.25;;;8.70;99.90;;;;;;5097033;28;20461;-51
2023/04/11 00:31:44;;;;;;;17.20;3.13;;;7.60;99.90;;;;;;5096503;27;20070;-47
2023/04/11 00:34:09;;;;;;;14.18;3.00;;;8.80;99.90;;;;;;5096464;27;20048;-47
2023/04/11 00:36:35;;;;;;;13.32;2.97;;;7.60;99.90;;;;;;5097327;27;20046;-52
2023/04/11 00:39:01;;;;;;;17.52;3.17;;;7.50;99.90;;;;;;5096253;27;20039;-51
2023/04/11 00:41:27;;;;;;;17.15;3.95;;;7.30;99.90;;;;;;5097515;27;20051;-48
2023/04/11 00:43:56;;;;;;;23.50;3.33;;;7.20;99.90;;;;;;5098475;27;20084;-51
2023/04/11 00:46:22;;;;;;;19.48;2.85;;;7.10;99.90;;;;;;5079533;27;20050;-50
2023/04/11 00:48:48;;;;;;;16.38;2.72;;;7.50;99.90;;;;;;5097471;27;20411;-49
2023/04/11 00:51:14;;;;;;;22.38;3.60;;;7.20;99.90;;;;;;5097650;27;20127;-50
2023/04/11 00:53:41;;;;;;;19.48;3.25;;;7.20;99.90;;;;;;5097190;27;20062;-50
2023/04/11 00:56:08;;;;;;;30.00;4.15;;;7.90;99.90;;;;;;5096296;27;20054;-50
2023/04/11 00:58:36;;;;;;;20.98;2.92;;;7.10;99.90;;;;;;5095741;27;20093;-48
2023/04/11 01:01:07;;;;;;;13.85;2.47;;;7.20;99.90;;;;;;5094919;27;20044;-52
2023/04/11 01:03:36;;;;;;;20.20;3.08;;;6.90;99.90;;;;;;5076976;27;20581;-50
2023/04/11 01:06:03;;;;;;;22.40;5.85;;;7.80;99.90;;;;;;5094919;27;20542;-47
2023/04/11 01:08:29;;;;;;;21.92;3.15;;;6.90;99.90;;;;;;5096041;27;20044;-48
2023/04/11 01:10:55;;;;;;;18.08;2.58;;;7.40;99.90;;;;;;5094693;27;20046;-49
2023/04/11 01:13:21;;;;;;;16.27;2.97;;;7.90;99.90;;;;;;5097276;27;20165;-50
2023/04/11 01:15:46;;;;;;;17.38;2.65;;;6.90;99.90;;;;;;5095566;27;20132;-48
2023/04/11 01:18:12;;;;;;;14.55;2.40;;;7.40;99.90;;;;;;5094795;27;20122;-51
2023/04/11 01:20:38;;;;;;;13.50;2.30;;;6.90;99.90;;;;;;5095933;27;20932;-50
2023/04/11 01:23:05;;;;;;;15.05;2.38;;;8.50;99.90;;;;;;5096087;27;20146;-47
2023/04/11 01:25:31;;;;;;;11.55;2.72;;;7.20;99.90;;;;;;5093939;27;20051;-50
2023/04/11 01:27:57;;;;;;;14.15;2.10;;;8.00;99.90;;;;;;5059070;28;20039;-50
2023/04/11 01:30:22;;;;;;;13.20;2.00;;;7.00;99.90;;;;;;5094923;27;20040;-50
2023/04/11 01:32:49;;;;;;;12.85;1.83;;;7.20;99.90;;;;;;5093902;27;20453;-50
2023/04/11 01:35:15;;;;;;;11.82;1.40;;;8.50;99.90;;;;;;5094829;27;20047;-51
2023/04/11 01:37:41;;;;;;;12.23;2.15;;;7.10;99.90;;;;;;5094613;27;20449;-51
2023/04/11 01:40:08;;;;;;;12.43;2.45;;;7.40;99.90;;;;;;5094120;27;20112;-49
2023/04/11 01:42:36;;;;;;;9.40;1.30;;;7.30;99.90;;;;;;5096189;27;20048;-51
2023/04/11 01:45:03;;;;;;;7.55;1.00;;;7.10;99.90;;;;;;5076618;28;20691;-50
2023/04/11 01:47:29;;;;;;;4.88;1.05;;;7.30;99.90;;;;;;5093893;27;20059;-49
2023/04/11 01:49:55;;;;;;;7.60;1.30;;;8.20;99.90;;;;;;5094509;27;20074;-52
2023/04/11 01:52:20;;;;;;;4.10;0.77;;;7.10;99.90;;;;;;5095868;27;20043;-51
2023/04/11 01:54:46;;;;;;;4.93;1.10;;;7.00;99.90;;;;;;5094848;28;20036;-50
2023/04/11 01:57:12;;;;;;;4.32;1.00;;;7.20;99.90;;;;;;5094207;27;20027;-50
2023/04/11 01:59:38;;;;;;;6.18;1.10;;;7.20;99.90;;;;;;5095166;27;20050;-52
2023/04/11 02:02:04;;;;;;;5.15;0.90;;;7.20;99.90;;;;;;5095041;27;20032;-49
2023/04/11 02:04:30;;;;;;;5.75;1.20;;;7.30;99.90;;;;;;5075879;28;20039;-49
2023/04/11 02:06:55;;;;;;;3.30;0.90;;;7.30;99.90;;;;;;5093927;27;20551;-52
2023/04/11 02:09:21;;;;;;;5.35;1.02;;;7.20;99.90;;;;;;5095729;27;20067;-50
2023/04/11 02:11:47;;;;;;;6.03;1.02;;;8.50;99.90;;;;;;5095103;27;20049;-51
2023/04/11 02:14:13;;;;;;;5.85;1.05;;;7.10;99.90;;;;;;5077956;27;20039;-50
2023/04/11 02:16:53;;;;;;;4.35;0.70;;;7.70;99.90;;;;;;5094679;27;20536;-47
2023/04/11 02:19:19;;;;;;;5.90;1.13;;;7.00;99.90;;;;;;5075820;28;20050;-52
2023/04/11 02:21:46;;;;;;;5.38;2.63;;;7.40;99.90;;;;;;5093406;27;20514;-51
2023/04/11 02:24:12;;;;;;;4.70;0.90;;;8.20;99.90;;;;;;5093313;27;20050;-48
2023/04/11 02:26:40;;;;;;;4.60;1.00;;;7.10;99.90;;;;;;5094441;27;20360;-51
2023/04/11 02:29:05;;;;;;;7.05;1.30;;;7.70;99.90;;;;;;5093778;27;21183;-51
2023/04/11 02:31:31;;;;;;;6.28;1.00;;;7.10;99.90;;;;;;5094249;27;20108;-48
2023/04/11 02:33:57;;;;;;;3.80;0.90;;;7.80;99.90;;;;;;5074581;28;20043;-51
2023/04/11 02:36:23;;;;;;;7.63;1.33;;;7.00;99.90;;;;;;5093145;27;20243;-51
2023/04/11 02:38:49;;;;;;;7.35;1.25;;;7.60;99.90;;;;;;5093740;28;20059;-51
2023/04/11 02:41:14;;;;;;;8.68;1.25;;;7.20;99.90;;;;;;5093752;27;20040;-51
2023/04/11 02:43:40;;;;;;;5.38;1.00;;;7.30;99.90;;;;;;5094596;27;20422;-49
2023/04/11 02:46:06;;;;;;;7.40;0.95;;;7.20;99.90;;;;;;5092917;27;20059;-47
2023/04/11 02:48:33;;;;;;;10.27;1.95;;;7.00;99.90;;;;;;5093788;27;20055;-48
2023/04/11 02:50:58;;;;;;;9.55;1.33;;;7.20;99.90;;;;;;5092710;27;20039;-49
2023/04/11 02:53:24;;;;;;;4.45;1.20;;;9.00;99.90;;;;;;5093161;28;20040;-50
2023/04/11 02:55:51;;;;;;;5.93;1.27;;;7.20;99.90;;;;;;5092572;27;21391;-50
2023/04/11 02:58:18;;;;;;;5.85;1.13;;;7.40;99.90;;;;;;5093932;27;20127;-51
2023/04/11 03:00:44;;;;;;;7.43;1.30;;;8.80;99.90;;;;;;5092421;27;20044;-50
2023/04/11 03:03:10;;;;;;;10.77;1.60;;;7.20;99.90;;;;;;5092789;27;20666;-49
2023/04/11 03:05:37;;;;;;;6.90;1.67;;;7.10;99.90;;;;;;5073704;28;20053;-51
2023/04/11 03:08:03;;;;;;;7.00;1.23;;;7.70;99.90;;;;;;5095757;27;20047;-52
2023/04/11 03:10:28;;;;;;;6.30;1.50;;;7.60;99.90;;;;;;5093410;28;20054;-51
2023/04/11 03:12:54;;;;;;;7.30;1.30;;;7.10;99.90;;;;;;5095212;27;20040;-50
2023/04/11 03:15:20;;;;;;;14.65;2.55;;;7.00;99.90;;;;;;5092749;28;20066;-49
2023/04/11 03:17:45;;;;;;;9.15;1.40;;;7.20;99.90;;;;;;5094812;28;20048;-52
2023/04/11 03:20:12;;;;;;;8.70;2.42;;;8.60;99.90;;;;;;5073687;28;20054;-50
2023/04/11 03:22:38;;;;;;;8.50;1.60;;;7.20;99.90;;;;;;5094707;27;20604;-48
2023/04/11 03:25:06;;;;;;;7.80;1.70;;;7.20;99.90;;;;;;5092573;28;20035;-51
2023/04/11 03:27:31;;;;;;;8.23;1.95;;;7.20;99.90;;;;;;5093287;28;20039;-50
2023/04/11 03:29:57;;;;;;;10.43;1.80;;;7.30;99.90;;;;;;5094291;28;20044;-51
2023/04/11 03:32:23;;;;;;;14.75;2.70;;;7.90;99.90;;;;;;5092939;28;20043;-50
2023/04/11 03:34:50;;;;;;;9.70;1.70;;;7.10;99.90;;;;;;5092437;28;20035;-51
2023/04/11 03:37:15;;;;;;;11.57;1.80;;;8.00;99.90;;;;;;5094397;28;20727;-51
2023/04/11 03:39:41;;;;;;;10.32;2.85;;;7.20;99.90;;;;;;5092758;28;20143;-52
2023/04/11 03:42:07;;;;;;;12.25;2.65;;;7.30;99.90;;;;;;5092411;28;20287;-51
2023/04/11 03:44:32;;;;;;;11.32;2.42;;;7.30;99.90;;;;;;5092782;28;20127;-51
2023/04/11 03:46:58;;;;;;;12.15;2.10;;;7.40;99.90;;;;;;5093103;28;20055;-50
2023/04/11 03:49:24;;;;;;;7.63;1.80;;;7.40;99.90;;;;;;5092608;28;20130;-50
2023/04/11 03:51:50;;;;;;;11.02;2.30;;;7.50;99.90;;;;;;5092855;28;20055;-51
2023/04/11 03:54:16;;;;;;;10.77;2.30;;;7.40;99.90;;;;;;5093116;28;20042;-50
2023/04/11 03:56:42;;;;;;;15.95;2.03;;;7.40;99.90;;;;;;5096413;27;20051;-48
2023/04/11 03:59:08;;;;;;;13.85;2.25;;;7.50;99.90;;;;;;5096945;27;20359;-50
2023/04/11 04:01:36;;;;;;;10.85;1.88;;;7.40;99.90;;;;;;5096853;27;20606;-51
2023/04/11 04:04:04;;;;;;;15.38;2.10;;;7.40;99.90;;;;;;5096198;27;20108;-48
2023/04/11 04:06:29;;;;;;;13.93;2.25;;;7.30;99.90;;;;;;5097682;27;20450;-50
2023/04/11 04:08:55;;;;;;;11.45;2.30;;;7.30;99.90;;;;;;5098375;27;20043;-49
2023/04/11 04:11:21;;;;;;;12.70;3.17;;;7.40;99.90;;;;;;5097109;27;20035;-53
2023/04/11 04:13:46;;;;;;;8.52;1.90;;;7.40;99.90;;;;;;5099093;27;20563;-51
2023/04/11 04:16:12;;;;;;;11.02;1.95;;;8.30;99.90;;;;;;5096971;27;20039;-49
2023/04/11 04:18:38;;;;;;;13.52;2.58;;;7.40;99.90;;;;;;5078799;27;20047;-52
2023/04/11 04:21:06;;;;;;;14.13;2.28;;;7.40;99.90;;;;;;5098129;27;20039;-54
2023/04/11 04:23:31;;;;;;;11.88;2.15;;;7.50;99.90;;;;;;5097614;27;20467;-49
2023/04/11 04:26:00;;;;;;;14.05;2.97;;;7.40;99.90;;;;;;5098481;27;20130;-49
2023/04/11 04:28:27;;;;;;;8.60;2.08;;;9.20;99.90;;;;;;5098716;27;20071;-50
2023/04/11 04:30:53;;;;;;;13.30;2.80;;;9.20;99.90;;;;;;5097064;27;20512;-51
2023/04/11 04:33:21;;;;;;;14.63;2.53;;;7.50;99.90;;;;;;5096443;27;20085;-50
2023/04/11 04:35:47;;;;;;;11.73;2.45;;;7.30;99.90;;;;;;5097040;27;20047;-49
2023/04/11 04:38:16;;;;;;;13.10;2.58;;;7.40;99.90;;;;;;5097052;27;20492;-52
2023/04/11 04:40:42;;;;;;;12.70;2.83;;;7.40;99.90;;;;;;5096787;27;21055;-48
2023/04/11 04:43:16;;;;;;;12.73;2.45;;;7.30;99.90;;;;;;5099172;27;20043;-48
2023/04/11 04:45:44;;;;;;;14.80;2.70;;;9.00;99.90;;;;;;5096251;27;20062;-50
2023/04/11 04:48:12;;;;;;;12.80;2.65;;;7.30;99.90;;;;;;5097899;27;20047;-52
2023/04/11 04:50:37;;;;;;;12.30;2.38;;;7.10;99.90;;;;;;5095753;27;20123;-52
2023/04/11 04:53:03;;;;;;;14.95;2.58;;;7.40;99.90;;;;;;5095448;27;20104;-51
2023/04/11 04:55:29;;;;;;;13.25;3.30;;;7.20;99.90;;;;;;5097417;27;20936;-49
2023/04/11 04:57:55;;;;;;;10.77;2.15;;;7.00;99.90;;;;;;5097386;27;20077;-51
2023/04/11 05:00:20;;;;;;;8.25;1.92;;;8.30;99.90;;;;;;5096431;27;20056;-50
2023/04/11 05:02:46;;;;;;;10.63;3.22;;;7.00;99.90;;;;;;5094598;27;20047;-48
2023/04/11 05:05:12;;;;;;;15.88;2.53;;;7.10;99.90;;;;;;5094037;27;20122;-49
2023/04/11 05:07:38;;;;;;;11.10;2.17;;;7.10;99.90;;;;;;5096158;27;20107;-50
2023/04/11 05:10:04;;;;;;;15.10;2.15;;;7.20;99.90;;;;;;5094853;27;20496;-51
2023/04/11 05:12:30;;;;;;;13.07;2.10;;;7.00;99.90;;;;;;5095239;27;20353;-49
2023/04/11 05:14:56;;;;;;;10.98;2.45;;;7.10;99.90;;;;;;5096391;27;20044;-51
2023/04/11 05:17:23;;;;;;;11.30;2.67;;;7.20;99.90;;;;;;5060783;28;20111;-49
2023/04/11 05:19:49;;;;;;;11.95;2.83;;;7.20;99.90;;;;;;5093423;27;20565;-48
2023/04/11 05:22:14;;;;;;;11.93;2.38;;;7.50;99.90;;;;;;5095332;27;20067;-50
2023/04/11 05:24:40;;;;;;;14.50;2.20;;;7.30;99.90;;;;;;5095520;27;20515;-49
2023/04/11 05:27:06;;;;;;;15.15;2.55;;;7.20;99.90;;;;;;5094767;28;20039;-49
2023/04/11 05:29:31;;;;;;;13.30;2.28;;;7.30;99.90;;;;;;5095055;27;20036;-50
2023/04/11 05:31:57;;;;;;;13.52;3.08;;;7.20;99.90;;;;;;5094631;27;20044;-46
2023/04/11 05:34:23;;;;;;;12.90;2.90;;;7.20;99.90;;;;;;5095904;27;20401;-48
2023/04/11 05:36:49;;;;;;;13.07;2.40;;;7.40;99.90;;;;;;5093951;27;20043;-53
2023/04/11 05:39:15;;;;;;;11.90;2.30;;;7.20;99.90;;;;;;5094987;27;20044;-53
2023/04/11 05:41:41;;;;;;;15.43;3.00;;;7.40;99.90;;;;;;5093984;27;20416;-53
2023/04/11 05:44:06;;;;;;;15.63;2.85;;;7.30;99.90;;;;;;5098029;27;20043;-47
2023/04/11 05:46:35;;;;;;;17.30;3.20;;;7.40;99.90;;;;;;5094125;27;20058;-50
2023/04/11 05:49:01;;;;;;;10.48;2.45;;;9.40;99.90;;;;;;5094942;27;20043;-51
2023/04/11 05:51:27;;;;;;;20.65;3.50;;;7.50;99.90;;;;;;5075830;28;20048;-51
2023/04/11 05:53:53;;;;;;;10.07;2.40;;;7.50;99.90;;;;;;5094550;27;20091;-52
2023/04/11 05:56:19;;;;;;;17.95;2.95;;;7.70;99.90;;;;;;5096226;27;20055;-50
2023/04/11 05:58:45;;;;;;;12.30;2.35;;;7.50;99.90;;;;;;5094863;27;20132;-50
2023/04/11 06:01:17;;;;;;;15.20;3.03;;;7.50;99.90;;;;;;5095578;27;20036;-51
2023/04/11 06:03:46;;;;;;;15.98;2.78;;;7.40;99.90;;;;;;5076675;28;20058;-48
2023/04/11 06:06:13;;;;;;;18.40;3.10;;;7.60;99.90;;;;;;5094930;27;20126;-52
2023/04/11 06:08:39;;;;;;;19.98;3.63;;;7.60;99.90;;;;;;5094572;27;20039;-51
2023/04/11 06:11:05;;;;;;;15.02;2.65;;;7.80;99.90;;;;;;5093884;27;20115;-51
2023/04/11 06:13:30;;;;;;;9.90;2.05;;;7.50;99.90;;;;;;5096790;27;20423;-48
2023/04/11 06:15:56;;;;;;;16.70;2.65;;;8.10;99.90;;;;;;5095338;27;20031;-51
2023/04/11 06:18:22;;;;;;;18.88;2.38;;;7.60;99.90;;;;;;5093695;28;20059;-51
2023/04/11 06:20:48;;;;;;;18.77;3.22;;;7.60;99.90;;;;;;5095819;27;20035;-51
2023/04/11 06:23:14;;;;;;;12.88;2.97;;;7.60;99.90;;;;;;5095118;27;20028;-49
2023/04/11 06:25:40;;;;;;;12.45;2.20;;;7.70;99.90;;;;;;5093746;27;20134;-49
2023/04/11 06:28:06;;;;;;;16.90;2.35;;;7.80;99.90;;;;;;5094820;27;20043;-51
2023/04/11 06:30:32;;;;;;;16.92;3.05;;;7.90;99.90;;;;;;5093272;27;20480;-52
2023/04/11 06:32:57;;;;;;;11.57;2.20;;;7.90;99.90;;;;;;5093562;28;20041;-49
2023/04/11 06:35:23;;;;;;;15.52;4.05;;;7.70;99.90;;;;;;5092390;28;20135;-51
2023/04/11 06:37:53;;;;;;;15.93;2.13;;;7.90;99.90;;;;;;5091569;27;20420;-51
2023/04/11 06:40:20;;;;;;;14.02;2.15;;;7.80;99.90;;;;;;5091583;28;20184;-52
2023/04/11 06:42:46;;;;;;;13.93;2.63;;;7.90;99.90;;;;;;5074039;28;20082;-50
2023/04/11 06:45:12;;;;;;;14.98;2.30;;;7.70;99.90;;;;;;5093443;27;20767;-50
2023/04/11 06:47:38;;;;;;;11.60;2.65;;;7.90;99.90;;;;;;5092407;28;20055;-51
2023/04/11 06:50:05;;;;;;;15.38;3.10;;;8.10;99.90;;;;;;5092087;27;20085;-50
2023/04/11 06:52:30;;;;;;;14.13;2.40;;;8.20;99.90;;;;;;5094373;27;20050;-52
2023/04/11 06:54:56;;;;;;;16.38;2.63;;;8.30;99.90;;;;;;5075490;28;20051;-53
2023/04/11 06:57:22;;;;;;;16.73;2.63;;;7.90;99.90;;;;;;5094220;27;20048;-52
2023/04/11 06:59:48;;;;;;;12.75;2.22;;;8.00;99.90;;;;;;5092328;27;20051;-49
2023/04/11 07:02:14;;;;;;;16.50;2.63;;;7.70;99.90;;;;;;5093542;27;20097;-51
2023/04/11 07:04:40;;;;;;;8.80;2.08;;;7.70;99.90;;;;;;5094486;27;20370;-50
2023/04/11 07:07:06;;;;;;;9.23;2.13;;;9.80;99.90;;;;;;5075545;28;20138;-49
2023/04/11 07:09:32;;;;;;;9.90;2.75;;;8.10;99.90;;;;;;5075197;28;20062;-48
2023/04/11 07:11:58;;;;;;;13.38;2.22;;;8.20;99.90;;;;;;5093362;28;20040;-50
2023/04/11 07:14:24;;;;;;;11.73;2.08;;;9.70;99.90;;;;;;5094756;27;20035;-53
2023/04/11 07:16:50;;;;;;;11.98;2.72;;;7.90;99.90;;;;;;5057266;28;20450;-52
2023/04/11 07:19:15;;;;;;;13.55;2.53;;;8.50;99.90;;;;;;5092948;27;20048;-51
2023/04/11 07:21:41;;;;;;;15.63;2.58;;;8.30;99.90;;;;;;5093976;28;20492;-47
2023/04/11 07:24:09;;;;;;;13.55;2.47;;;9.50;99.90;;;;;;5094225;28;20055;-50
2023/04/11 07:26:37;;;;;;;18.90;4.03;;;9.90;99.90;;;;;;5094679;28;20051;-51
2023/04/11 07:29:03;;;;;;;14.18;2.75;;;10.50;99.90;;;;;;5077446;28;20115;-51
2023/04/11 07:31:29;;;;;;;11.38;2.13;;;10.50;99.90;;;;;;5093416;28;20093;-54
2023/04/11 07:33:55;;;;;;;12.80;2.13;;;10.30;99.90;;;;;;5093632;28;20410;-53
2023/04/11 07:36:21;;;;;;;15.75;3.00;;;10.40;99.90;;;;;;5094182;28;20742;-53
2023/04/11 07:38:47;;;;;;;12.48;2.28;;;10.50;99.90;;;;;;5095531;28;20134;-51
2023/04/11 07:41:12;;;;;;;14.27;2.38;;;10.50;99.90;;;;;;5094025;28;20557;-53
2023/04/11 07:43:38;;;;;;;16.40;3.67;;;10.40;99.90;;;;;;5094756;28;20048;-50
2023/04/11 07:46:04;;;;;;;13.57;2.40;;;9.90;99.90;;;;;;5094182;28;20568;-52
2023/04/11 07:48:30;;;;;;;11.82;2.20;;;9.80;99.90;;;;;;5093037;28;20442;-54
2023/04/11 07:50:56;;;;;;;12.60;1.90;;;9.90;99.90;;;;;;5092815;28;20106;-53
2023/04/11 07:53:22;;;;;;;16.38;2.30;;;9.80;99.90;;;;;;5092987;28;20130;-53
2023/04/11 07:55:48;;;;;;;17.60;2.83;;;10.20;99.90;;;;;;5094132;28;20096;-53
2023/04/11 07:58:14;;;;;;;14.90;2.75;;;10.40;99.90;;;;;;5093971;28;20047;-51
2023/04/11 08:00:40;;;;;;;12.57;2.00;;;10.80;99.90;;;;;;5093003;28;20199;-53
2023/04/11 08:03:07;;;;;;;15.18;2.03;;;10.70;99.90;;;;;;5093645;28;20476;-53
2023/04/11 08:05:34;;;;;;;11.98;2.15;;;10.40;99.90;;;;;;5091317;28;20059;-54
2023/04/11 08:08:01;;;;;;;16.55;2.80;;;10.60;99.90;;;;;;5094270;28;20798;-53
2023/04/11 08:10:27;;;;;;;12.43;2.10;;;10.50;99.90;;;;;;5074343;28;20035;-53
2023/04/11 08:12:53;;;;;;;14.68;1.80;;;10.60;99.90;;;;;;5092781;28;20402;-48
2023/04/11 08:15:19;;;;;;;10.10;2.00;;;10.00;99.90;;;;;;5093417;28;20123;-52
2023/04/11 08:17:45;;;;;;;14.15;2.15;;;9.70;99.90;;;;;;5092365;28;20130;-55
2023/04/11 08:20:12;;;;;;;11.10;1.90;;;9.90;99.90;;;;;;5092912;28;20504;-53
2023/04/11 08:22:38;;;;;;;15.18;2.53;;;9.90;99.90;;;;;;5092890;28;20039;-53
2023/04/11 08:25:07;;;;;;;14.30;1.88;;;9.80;99.90;;;;;;5074515;28;20043;-54
2023/04/11 08:27:32;;;;;;;11.07;1.80;;;10.20;99.90;;;;;;5092986;28;20123;-53
2023/04/11 08:29:58;;;;;;;8.43;2.03;;;10.70;99.90;;;;;;5091899;28;20043;-54
2023/04/11 08:32:24;;;;;;;13.13;1.75;;;11.30;99.90;;;;;;5093518;28;20039;-53
2023/04/11 08:34:50;;;;;;;8.23;1.40;;;11.50;99.90;;;;;;5074827;28;20040;-54
2023/04/11 08:37:15;;;;;;;7.80;1.60;;;11.60;99.90;;;;;;5091751;28;20064;-53
2023/04/11 08:39:41;;;;;;;13.75;2.45;;;12.20;99.90;;;;;;5092248;28;21734;-54
2023/04/11 08:42:23;;;;;;;7.20;1.17;;;12.60;99.90;;;;;;5095312;27;20051;-54
2023/04/11 08:44:54;;;;;;;6.32;1.10;;;11.70;99.90;;;;;;5097710;27;20031;-53
2023/04/11 08:47:20;;;;;;;6.22;1.33;;;10.80;99.90;;;;;;5097492;27;20169;-52
2023/04/11 08:49:46;;;;;;;6.57;1.55;;;9.70;99.90;;;;;;5095209;27;20055;-52
2023/04/11 08:52:12;;;;;;;8.43;1.35;;;9.10;99.90;;;;;;5097627;27;20050;-51
2023/04/11 08:54:38;;;;;;;13.35;2.03;;;8.80;99.90;;;;;;5096284;27;20511;-53
2023/04/11 08:57:04;;;;;;;12.95;2.03;;;9.30;99.90;;;;;;5096504;27;20039;-53
2023/04/11 08:59:32;;;;;;;14.23;2.47;;;9.70;99.90;;;;;;5095962;27;20264;-51
2023/04/11 09:02:08;;;;;;;11.63;2.08;;;10.10;99.90;;;;;;5097742;27;20054;-52
2023/04/11 09:04:41;;;;;;;11.27;1.90;;;10.70;99.90;;;;;;5095553;27;20051;-53
2023/04/11 09:07:07;;;;;;;11.35;2.00;;;10.70;99.90;;;;;;5094997;27;20052;-53
2023/04/11 09:09:36;;;;;;;9.48;1.98;;;10.80;99.90;;;;;;5095506;27;20127;-55
2023/04/11 09:12:03;;;;;;;8.35;1.80;;;10.80;99.90;;;;;;5095238;27;20075;-53
2023/04/11 09:14:30;;;;;;;9.98;1.83;;;10.60;99.90;;;;;;5099115;27;20130;-51
2023/04/11 09:17:03;;;;;;;12.63;1.90;;;10.20;99.90;;;;;;5095029;27;20036;-49
2023/04/11 09:19:31;;;;;;;9.68;1.65;;;10.60;99.90;;;;;;5076332;27;20126;-52
2023/04/11 09:22:01;;;;;;;12.88;3.38;;;11.00;99.90;;;;;;5094497;27;20044;-52
2023/04/11 09:24:28;;;;;;;9.05;1.92;;;11.20;99.90;;;;;;5095063;27;20499;-52
2023/04/11 09:27:18;;;;;;;11.18;2.00;;;10.80;99.90;;;;;;5093954;28;20039;-51
2023/04/11 09:29:45;;;;;;;12.45;2.13;;;10.40;99.90;;;;;;5094627;27;20036;-53
2023/04/11 09:32:32;;;;;;;12.27;2.05;;;10.30;99.90;;;;;;5095263;27;20063;-53
2023/04/11 09:35:17;;;;;;;14.50;2.92;;;11.70;99.90;;;;;;5094827;27;20134;-52
2023/04/11 09:37:47;;;;;;;17.00;2.40;;;12.60;99.90;;;;;;5095346;27;20043;-49
2023/04/11 09:40:13;;;;;;;13.63;2.30;;;13.50;99.90;;;;;;5094574;27;20972;-49
2023/04/11 09:42:42;;;;;;;11.52;2.00;;;13.30;99.90;;;;;;5095992;27;20066;-49
2023/04/11 09:45:18;;;;;;;13.95;2.03;;;12.30;99.90;;;;;;5077966;27;20035;-51
2023/04/11 09:47:49;;;;;;;10.65;1.40;;;11.70;99.90;;;;;;5073057;28;20056;-49
2023/04/11 09:50:15;;;;;;;10.02;1.60;;;9.30;99.90;;;;;;5074065;28;20044;-52
2023/04/11 09:52:43;;;;;;;4.40;0.98;;;10.10;99.90;;;;;;5074248;28;20589;-51
2023/04/11 09:55:11;;;;;;;11.60;1.60;;;9.80;99.90;;;;;;5072717;28;20031;-51
2023/04/11 09:57:40;;;;;;;8.15;1.75;;;9.50;99.90;;;;;;5074975;28;20048;-51
2023/04/11 10:00:13;;;;;;;11.40;1.83;;;9.10;99.90;;;;;;5075734;28;20193;-50
2023/04/11 10:02:40;;;;;;;8.55;1.60;;;8.70;99.90;;;;;;5073216;28;20134;-50
2023/04/11 10:05:07;;;;;;;14.35;1.95;;;8.70;99.90;;;;;;5073569;28;20122;-56
2023/04/11 10:07:35;;;;;;;9.27;1.40;;;8.70;99.90;;;;;;5075449;28;20078;-51
2023/04/11 10:10:02;;;;;;;9.05;1.65;;;8.50;99.90;;;;;;5075831;28;20501;-47
2023/04/11 10:12:32;;;;;;;9.18;1.63;;;8.30;99.90;;;;;;5074454;28;20048;-49
2023/04/11 10:15:07;;;;;;;5.97;1.10;;;8.40;99.90;;;;;;5074678;28;20040;-46
2023/04/11 10:17:33;;;;;;;7.68;1.75;;;7.90;99.90;;;;;;5075912;28;20131;-46
2023/04/11 10:19:59;;;;;;;8.70;1.80;;;7.60;99.90;;;;;;5074049;28;20083;-49
2023/04/11 10:22:54;;;;;;;9.48;1.50;;;7.30;99.90;;;;;;5074679;28;20079;-49
2023/04/11 10:25:21;;;;;;;8.52;1.15;;;7.50;99.90;;;;;;5056131;28;20074;-47
2023/04/11 10:28:00;;;;;;;6.28;1.45;;;6.70;99.90;;;;;;5074660;28;20377;-48
2023/04/11 10:30:41;;;;;;;5.43;0.80;;;6.30;99.90;;;;;;5073549;28;20040;-49
2023/04/11 10:33:11;;;;;;;5.38;0.90;;;6.20;99.90;;;;;;5073595;28;20381;-50
2023/04/11 10:36:12;;;;;;;7.53;1.20;;;6.20;99.90;;;;;;5073287;28;20599;-48
2023/04/11 10:38:45;;;;;;;6.88;1.27;;;6.10;99.90;;;;;;4990659;28;20042;-52
2023/04/11 10:41:25;;;;;;;15.15;3.20;;;6.40;99.90;;;;;;5060976;28;20436;-47
2023/04/11 10:43:52;;;;;;;12.45;1.67;;;6.50;99.90;;;;;;5072715;28;20048;-50
2023/04/11 10:46:19;;;;;;;12.25;1.83;;;6.50;99.90;;;;;;5075276;28;20162;-50
2023/04/11 10:49:02;;;;;;;8.30;2.13;;;6.60;99.90;;;;;;5092498;28;20073;-47
2023/04/11 10:51:32;;;;;;;8.27;1.63;;;6.60;99.90;;;;;;5094446;28;20059;-54
2023/04/11 10:53:59;;;;;;;11.85;2.10;;;6.70;99.90;;;;;;5094076;27;20722;-49
2023/04/11 10:56:44;;;;;;;9.40;1.80;;;7.30;99.90;;;;;;5058832;28;20047;-51
2023/04/11 10:59:35;;;;;;;14.27;2.25;;;7.20;99.90;;;;;;5093333;27;20071;-51
2023/04/11 11:02:01;;;;;;;10.57;2.00;;;6.80;99.90;;;;;;5048040;27;20683;-51
2023/04/11 11:04:31;;;;;;;9.88;1.75;;;6.80;99.90;;;;;;5091679;28;20039;-51
2023/04/11 11:07:05;;;;;;;10.25;1.58;;;6.80;99.90;;;;;;5092456;27;20412;-50
2023/04/11 11:09:32;;;;;;;10.95;2.17;;;7.00;99.90;;;;;;5093599;28;20035;-50
2023/04/11 11:12:05;;;;;;;9.48;2.72;;;6.90;99.90;;;;;;5093286;28;20500;-48
2023/04/11 11:14:31;;;;;;;11.73;2.08;;;7.10;99.90;;;;;;5074543;28;20036;-50
2023/04/11 11:16:56;;;;;;;11.50;2.50;;;7.20;99.90;;;;;;5093331;27;20058;-48
2023/04/11 11:19:22;;;;;;;10.13;1.80;;;7.30;99.90;;;;;;5091109;27;20044;-53
2023/04/11 11:21:50;;;;;;;8.10;1.13;;;8.90;99.90;;;;;;5092650;27;20126;-49
2023/04/11 11:24:25;;;;;;;8.05;1.17;;;7.80;99.90;;;;;;5092689;27;20046;-52
2023/04/11 11:26:53;;;;;;;3.50;0.90;;;7.60;99.90;;;;;;5093781;28;20059;-48
2023/04/11 11:29:36;;;;;;;5.80;1.50;;;7.70;99.90;;;;;;5093659;27;20448;-51
2023/04/11 11:32:02;;;;;;;8.23;1.10;;;7.30;99.90;;;;;;5094331;28;20052;-57
2023/04/11 11:34:33;;;;;;;8.90;1.27;;;7.60;99.90;;;;;;5092990;28;20519;-52
2023/04/11 11:37:00;;;;;;;8.50;1.40;;;7.60;99.90;;;;;;5093343;28;20050;-49
2023/04/11 11:39:29;;;;;;;5.32;1.33;;;8.00;99.90;;;;;;5093131;28;20232;-52
2023/04/11 11:41:55;;;;;;;7.25;1.70;;;8.00;99.90;;;;;;5093432;28;20115;-52
2023/04/11 11:44:29;;;;;;;13.75;2.10;;;8.90;99.90;;;;;;5094118;28;20062;-54
2023/04/11 11:47:04;;;;;;;11.32;1.85;;;9.00;99.90;;;;;;5093688;28;20040;-54
2023/04/11 11:49:53;;;;;;;13.93;2.03;;;9.50;99.90;;;;;;5093355;28;20047;-52
2023/04/11 11:52:36;;;;;;;14.73;2.17;;;9.90;99.90;;;;;;5075119;28;20043;-55
2023/04/11 11:55:04;;;;;;;14.68;3.55;;;10.40;99.90;;;;;;5092564;28;20039;-52
2023/04/11 11:57:31;;;;;;;13.25;2.92;;;10.30;99.90;;;;;;5092126;28;20408;-51
2023/04/11 12:00:00;;;;;;;15.10;2.75;;;10.30;99.90;;;;;;5092399;28;20118;-55
2023/04/11 12:02:26;;;;;;;11.07;2.20;;;10.10;99.90;;;;;;5091594;28;20122;-54
2023/04/11 12:04:59;;;;;;;12.50;2.50;;;10.40;99.90;;;;;;5091103;28;20055;-55
2023/04/11 12:07:25;;;;;;;18.17;2.60;;;10.20;99.90;;;;;;5091594;28;20040;-53
2023/04/11 12:10:02;;;;;;;11.20;2.03;;;10.50;99.90;;;;;;5092877;28;20044;-51
2023/04/11 12:12:38;;;;;;;16.25;2.50;;;9.70;99.90;;;;;;5073194;28;20036;-52
2023/04/11 12:15:15;;;;;;;12.23;2.30;;;10.00;99.90;;;;;;5093147;28;20168;-52
2023/04/11 12:17:42;;;;;;;11.57;2.40;;;10.40;99.90;;;;;;5095582;28;20527;-51
2023/04/11 12:20:09;;;;;;;11.48;2.20;;;10.80;99.90;;;;;;5096027;27;20083;-53
2023/04/11 12:22:36;;;;;;;10.80;1.88;;;10.80;99.90;;;;;;5095048;27;20039;-52
2023/04/11 12:25:10;;;;;;;16.98;3.38;;;10.80;99.90;;;;;;5094828;27;20051;-52
2023/04/11 12:27:38;;;;;;;12.80;2.22;;;10.50;99.90;;;;;;5095815;27;20067;-52
2023/04/11 12:30:04;;;;;;;15.75;2.50;;;10.50;99.90;;;;;;5094928;27;20530;-53
2023/04/11 12:32:34;;;;;;;14.63;2.60;;;10.50;99.90;;;;;;5077657;28;20067;-53
2023/04/11 12:35:01;;;;;;;14.45;3.08;;;10.80;99.90;;;;;;5095045;27;20128;-54
2023/04/11 12:37:27;;;;;;;13.55;2.03;;;10.80;99.90;;;;;;5096553;27;20110;-52
2023/04/11 12:39:53;;;;;;;11.85;2.13;;;10.50;99.90;;;;;;5097421;27;20545;-52
2023/04/11 12:42:19;;;;;;;12.90;1.80;;;10.50;99.90;;;;;;5095618;28;20043;-53
2023/04/11 12:44:46;;;;;;;20.52;3.42;;;10.40;99.90;;;;;;5095361;27;20765;-51
2023/04/11 12:47:12;;;;;;;10.65;2.03;;;10.40;99.90;;;;;;5096958;27;20055;-52
2023/04/11 12:49:38;;;;;;;12.55;2.30;;;9.80;99.90;;;;;;5096319;27;20118;-53
2023/04/11 12:52:05;;;;;;;16.73;3.05;;;9.90;99.90;;;;;;5094288;27;20051;-53